Terminal Aerodrome Forecast
Issued by NWS Sioux Falls, SD

Home | Current Version | Previous Version | Text Only | Print | Product List | Glossary Off
Versions: 1 2 3 4 5 6 7 8 9 10 11 12 13 14 15 16 17 18 19 20 21 22 23 24 25 26 27 28

349
FTUS43 KFSD 181123
TAFSUX
TAF
KSUX 181123Z 1812/1912 36013KT 1SM -SN OVC015
     FM181700 34013KT 2SM -SN OVC008
     FM181800 34013KT 3SM -RASN OVC010
     FM182200 33013KT P6SM OVC015
     FM190600 33007KT P6SM BKN020
     FM191100 34006KT P6SM SCT025=

USA.gov is the U.S. government's official web portal to all federal, state and local government web resources and services.